This is the latest recevied weather packets stored in our database for station/object N9BSW. If no packets are shown the sender has not sent any weather packets the latest 10 day(s).
| Time | Temp. | Humidity | Pressure | Rain* | Wind** | Luminosity | Snow |
|---|---|---|---|---|---|---|---|
| 1777489651 | 17.22° C | 54% | 1012.6 hPa | 0 mm | - | 328 W/m² | - |
| 1777489347 | 16.67° C | 58% | 1012.4 hPa | 0 mm | - | 294 W/m² | - |
| 1777489044 | 17.22° C | 58% | 1012.2 hPa | 0 mm | - | 225 W/m² | - |
| 1777488741 | 16.67° C | 58% | 1012.3 hPa | 0 mm | - | 462 W/m² | - |
| 1777488438 | 16.11° C | 58% | 1012.3 hPa | 0 mm | - | 263 W/m² | - |
| 1777488137 | 16.67° C | 58% | 1012.2 hPa | 0 mm | - | 131 W/m² | - |
| 1777487835 | 17.22° C | 58% | 1011.9 hPa | 0 mm | - | 152 W/m² | - |
| 1777487532 | 17.22° C | 56% | 1012.1 hPa | 0 mm | - | 396 W/m² | - |
| 1777487229 | 17.22° C | 59% | 1012 hPa | 0 mm | - | 299 W/m² | - |
| 1777486925 | 17.78° C | 55% | 1011.8 hPa | 0 mm | - | 216 W/m² | - |
| 1777486622 | 17.78° C | 54% | 1011.7 hPa | 0 mm | - | 218 W/m² | - |
| 1777486320 | 17.22° C | 56% | 1011.7 hPa | 0 mm | - | 389 W/m² | - |
| 1777486017 | 17.22° C | 61% | 1011.9 hPa | 0 mm | - | 435 W/m² | - |
| 1777485714 | 17.22° C | 57% | 1011.7 hPa | 0 mm | - | 169 W/m² | - |
| 1777485409 | 17.78° C | 57% | 1011.8 hPa | 0 mm | - | 332 W/m² | - |
| 1777485105 | 17.22° C | 60% | 1011.7 hPa | 0 mm | - | 269 W/m² | - |
| 1777484802 | 18.33° C | 57% | 1011.8 hPa | 0 mm | - | 193 W/m² | - |
| 1777484498 | 18.89° C | 57% | 1011.9 hPa | 0 mm | - | 310 W/m² | - |
| 1777484196 | 18.33° C | 63% | 1011.7 hPa | 0 mm | - | 1165 W/m² | - |
| 1777483892 | 17.78° C | 62% | 1011.9 hPa | 0 mm | - | 284 W/m² | - |
| 1777483588 | 18.33° C | 61% | 1011.9 hPa | 0 mm | - | 304 W/m² | - |
| 1777483288 | 17.22° C | 62% | 1011.8 hPa | 0 mm | - | 1067 W/m² | - |
| 1777482985 | 17.22° C | 61% | 1012 hPa | 0 mm | - | 322 W/m² | - |
| 1777482681 | 18.33° C | 56% | 1011.8 hPa | 0 mm | - | 283 W/m² | - |
| 1777482378 | 18.33° C | 59% | 1012 hPa | 0 mm | - | 966 W/m² | - |
* Rain latest hour (hover to see other rain measurements)
** Current wind speed in m/s (hover to see current wind gust speed)